createdAt,value
2022-08-19T00:01:40.961Z,3.35
2022-08-19T00:04:12.395Z,4.00
2022-08-19T00:06:43.038Z,3.63
2022-08-19T00:09:14.820Z,3.33
2022-08-19T00:11:44.580Z,3.65
2022-08-19T00:14:16.748Z,3.58
2022-08-19T00:16:49.230Z,3.70
2022-08-19T00:19:18.402Z,3.67
2022-08-19T00:21:46.922Z,3.92
2022-08-19T00:24:16.962Z,3.30
2022-08-19T00:26:47.131Z,3.53
2022-08-19T00:29:18.590Z,3.38
2022-08-19T00:31:50.680Z,3.25
2022-08-19T00:34:23.175Z,3.60
2022-08-19T00:36:51.542Z,3.47
2022-08-19T00:39:20.103Z,3.15
2022-08-19T00:41:50.565Z,3.10
2022-08-19T00:44:27.084Z,3.13
2022-08-19T00:46:59.916Z,3.55
2022-08-19T00:49:33.773Z,3.33
2022-08-19T00:52:06.033Z,3.40
2022-08-19T00:54:34.891Z,3.28
2022-08-19T00:57:07.325Z,3.60
2022-08-19T00:59:56.502Z,3.50
2022-08-19T01:02:29.882Z,3.47
2022-08-19T01:04:58.882Z,3.40
2022-08-19T01:07:27.571Z,3.42
2022-08-19T01:09:56.055Z,3.45
2022-08-19T01:12:24.867Z,3.58
2022-08-19T01:14:54.345Z,3.30
2022-08-19T01:17:23.298Z,3.35
2022-08-19T01:19:53.678Z,3.90
2022-08-19T01:22:33.661Z,3.55
2022-08-19T01:25:03.503Z,3.63
2022-08-19T01:27:43.098Z,3.70
2022-08-19T01:30:15.172Z,3.70
2022-08-19T01:32:44.199Z,3.75
2022-08-19T01:35:14.800Z,3.85
2022-08-19T01:37:51.192Z,3.50
2022-08-19T01:40:21.360Z,3.42
2022-08-19T01:42:49.982Z,3.17
2022-08-19T01:45:19.338Z,2.95
2022-08-19T01:47:52.749Z,3.20
2022-08-19T01:50:29.966Z,3.60
2022-08-19T01:53:02.348Z,3.65
2022-08-19T01:55:32.456Z,3.58
2022-08-19T01:58:04.080Z,3.58
2022-08-19T02:00:34.094Z,3.13
2022-08-19T02:03:02.767Z,3.75
2022-08-19T02:05:31.208Z,3.78
2022-08-19T02:08:00.977Z,3.75
2022-08-19T02:10:29.342Z,3.42
2022-08-19T02:12:57.770Z,3.60
2022-08-19T02:15:26.721Z,3.55
2022-08-19T02:17:55.150Z,3.13
2022-08-19T02:20:23.465Z,3.35
2022-08-19T02:22:52.115Z,3.45
2022-08-19T02:25:21.937Z,3.17
2022-08-19T02:27:50.296Z,3.17
2022-08-19T02:30:19.906Z,3.60
2022-08-19T02:32:48.300Z,3.97
2022-08-19T02:35:16.771Z,3.10
2022-08-19T02:38:03.065Z,3.70
2022-08-19T02:40:34.800Z,3.67
2022-08-19T02:43:03.217Z,3.80
2022-08-19T02:45:34.072Z,3.97
2022-08-19T02:48:02.484Z,3.28
2022-08-19T02:50:34.215Z,3.33
2022-08-19T02:53:02.575Z,3.97
2022-08-19T02:55:32.334Z,3.60
2022-08-19T02:58:15.070Z,3.20
2022-08-19T03:00:45.298Z,3.55
2022-08-19T03:03:14.251Z,3.38
2022-08-19T03:05:56.020Z,3.38
2022-08-19T03:08:26.749Z,4.00
2022-08-19T03:10:56.549Z,3.38
2022-08-19T03:13:25.273Z,3.80
2022-08-19T03:15:53.606Z,3.38
2022-08-19T03:18:23.127Z,3.50
2022-08-19T03:20:55.528Z,3.50
2022-08-19T03:23:25.051Z,3.58
2022-08-19T03:25:58.309Z,3.75
2022-08-19T03:28:35.107Z,3.50
2022-08-19T03:31:43.770Z,3.67
2022-08-19T03:33:56.980Z,3.58
2022-08-19T03:36:28.536Z,4.10
2022-08-19T03:39:00.508Z,3.58
2022-08-19T03:41:34.356Z,3.53
2022-08-19T03:44:18.019Z,3.25
2022-08-19T03:46:47.891Z,3.65
2022-08-19T03:49:18.085Z,3.42
2022-08-19T03:51:48.594Z,3.58
2022-08-19T03:54:19.176Z,3.85
2022-08-19T03:56:50.804Z,4.32
2022-08-19T03:59:21.554Z,3.80
2022-08-19T04:01:49.952Z,4.07
2022-08-19T04:04:20.004Z,3.85
2022-08-19T04:06:48.740Z,4.22
2022-08-19T04:09:17.629Z,3.85
2022-08-19T04:11:49.182Z,4.43
2022-08-19T04:14:19.961Z,4.70
2022-08-19T04:16:49.256Z,4.55
2022-08-19T04:19:19.886Z,4.45
2022-08-19T04:21:51.352Z,4.30
2022-08-19T04:24:20.836Z,4.80
2022-08-19T04:26:51.399Z,4.45
2022-08-19T04:29:22.711Z,4.43
2022-08-19T04:31:51.817Z,4.40
2022-08-19T04:34:23.524Z,4.38
2022-08-19T04:36:53.208Z,4.28
2022-08-19T04:39:45.076Z,4.25
2022-08-19T04:42:32.934Z,5.03
2022-08-19T04:45:04.136Z,4.90
2022-08-19T04:47:47.402Z,4.55
2022-08-19T04:50:23.557Z,4.38
2022-08-19T04:52:53.413Z,4.70
2022-08-19T04:55:21.968Z,4.57
2022-08-19T04:57:51.674Z,4.28
2022-08-19T05:00:20.145Z,4.28
2022-08-19T05:02:50.245Z,4.80
2022-08-19T05:05:19.136Z,4.70
2022-08-19T05:07:47.588Z,4.78
2022-08-19T05:10:16.003Z,4.97
2022-08-19T05:12:44.330Z,4.88
2022-08-19T05:15:14.315Z,5.13
2022-08-19T05:18:03.147Z,5.32
2022-08-19T05:20:49.284Z,4.57
2022-08-19T05:23:21.892Z,5.28
2022-08-19T05:25:52.532Z,5.60
2022-08-19T05:28:22.339Z,5.38
2022-08-19T05:30:52.207Z,5.70
2022-08-19T05:33:20.778Z,5.32
2022-08-19T05:35:50.356Z,6.30
2022-08-19T05:38:19.366Z,6.28
2022-08-19T05:40:47.965Z,6.03
2022-08-19T05:43:17.445Z,6.28
2022-08-19T05:45:46.292Z,5.72
2022-08-19T05:48:21.393Z,5.95
2022-08-19T05:50:51.140Z,5.95
2022-08-19T05:53:20.107Z,5.57
2022-08-19T05:55:48.525Z,5.93
2022-08-19T05:58:17.289Z,6.30
2022-08-19T06:00:46.461Z,5.88
2022-08-19T06:03:16.226Z,6.10
2022-08-19T06:05:51.676Z,6.95
2022-08-19T06:08:34.531Z,8.25
2022-08-19T06:11:22.198Z,9.15
2022-08-19T06:13:59.670Z,9.88
2022-08-19T06:16:31.124Z,9.52
2022-08-19T06:19:03.168Z,8.90
2022-08-19T06:21:32.338Z,8.68
2022-08-19T06:24:01.568Z,10.55
2022-08-19T06:26:29.975Z,10.13
2022-08-19T06:28:59.083Z,10.77
2022-08-19T06:31:30.121Z,10.75
2022-08-19T06:33:59.903Z,12.02
2022-08-19T06:36:34.749Z,13.15
2022-08-19T06:39:06.284Z,14.95
2022-08-19T06:41:41.087Z,15.05
2022-08-19T06:44:19.790Z,14.05
2022-08-19T06:46:54.920Z,14.60
2022-08-19T06:49:27.112Z,13.60
2022-08-19T06:51:57.707Z,13.57
2022-08-19T06:54:30.766Z,13.88
2022-08-19T06:57:01.213Z,13.88
2022-08-19T06:59:33.537Z,14.30
2022-08-19T07:02:04.598Z,13.80
2022-08-19T07:04:36.269Z,15.18
2022-08-19T07:07:20.291Z,13.57
2022-08-19T07:09:59.415Z,13.32
2022-08-19T07:12:33.863Z,13.43
2022-08-19T07:15:05.767Z,13.25
2022-08-19T07:17:35.734Z,18.52
2022-08-19T07:20:09.632Z,20.13
2022-08-19T07:25:09.890Z,18.17
2022-08-19T07:27:39.719Z,22.10
2022-08-19T07:30:12.923Z,23.27
2022-08-19T07:32:41.631Z,23.92
2022-08-19T07:35:11.911Z,21.08
2022-08-19T07:37:45.040Z,20.00
2022-08-19T07:40:14.222Z,18.88
2022-08-19T07:42:43.741Z,20.23
2022-08-19T07:45:12.155Z,24.85
2022-08-19T07:47:58.450Z,21.08
2022-08-19T07:50:28.834Z,19.10
2022-08-19T07:52:57.602Z,20.20
2022-08-19T07:55:41.626Z,19.95
2022-08-19T07:58:13.591Z,19.27
2022-08-19T08:00:42.670Z,17.92
2022-08-19T08:03:11.187Z,17.83
2022-08-19T08:05:58.738Z,15.73
2022-08-19T08:08:48.005Z,18.25
2022-08-19T08:11:20.705Z,14.93
2022-08-19T08:14:00.892Z,19.48
2022-08-19T08:16:39.656Z,18.10
2022-08-19T08:19:25.528Z,15.57
2022-08-19T08:21:57.360Z,14.23
2022-08-19T08:24:28.650Z,14.23
2022-08-19T08:26:58.598Z,16.80
2022-08-19T08:29:35.114Z,14.55
2022-08-19T08:32:14.270Z,17.13
2022-08-19T08:34:44.101Z,16.02
2022-08-19T08:37:13.852Z,14.73
2022-08-19T08:39:44.798Z,15.55
2022-08-19T08:42:23.194Z,14.98
2022-08-19T08:44:59.602Z,12.85
2022-08-19T08:47:33.900Z,14.48
2022-08-19T08:52:37.185Z,14.75
2022-08-19T08:55:11.822Z,15.48
2022-08-19T08:57:46.830Z,15.65
2022-08-19T09:00:19.614Z,19.48
2022-08-19T09:02:50.707Z,15.20
2022-08-19T09:05:22.010Z,16.55
2022-08-19T09:08:02.642Z,13.45
2022-08-19T09:10:37.279Z,15.82
2022-08-19T09:13:23.150Z,15.43
2022-08-19T09:15:56.989Z,12.90
2022-08-19T09:18:26.157Z,16.75
2022-08-19T09:20:58.154Z,16.15
2022-08-19T09:23:27.965Z,16.90
2022-08-19T09:25:56.315Z,17.58
2022-08-19T09:28:27.035Z,19.15
2022-08-19T09:30:55.822Z,17.40
2022-08-19T09:33:24.409Z,16.23
2022-08-19T09:36:04.727Z,15.27
2022-08-19T09:38:43.684Z,13.15
2022-08-19T09:41:14.531Z,11.95
2022-08-19T09:43:47.860Z,11.43
2022-08-19T09:46:18.369Z,9.30
2022-08-19T09:48:49.263Z,8.82
2022-08-19T09:51:23.288Z,11.68
2022-08-19T09:53:54.915Z,9.90
2022-08-19T09:56:24.611Z,10.20
2022-08-19T09:58:53.080Z,11.15
2022-08-19T10:01:23.807Z,11.85
2022-08-19T10:03:55.436Z,12.02
2022-08-19T10:06:38.216Z,14.90
2022-08-19T10:09:16.968Z,12.93
2022-08-19T10:11:55.223Z,12.55
2022-08-19T10:14:24.537Z,11.50
2022-08-19T10:16:53.175Z,12.30
2022-08-19T10:19:25.979Z,11.68
2022-08-19T10:22:00.088Z,12.55
2022-08-19T10:27:00.165Z,12.30
2022-08-19T10:29:32.582Z,13.98
2022-08-19T10:32:03.268Z,13.13
2022-08-19T10:34:32.894Z,10.93
2022-08-19T10:37:02.305Z,13.18
2022-08-19T10:39:43.126Z,13.80
2022-08-19T10:42:13.883Z,13.93
2022-08-19T10:44:42.526Z,12.18
2022-08-19T10:47:17.777Z,10.05
2022-08-19T10:50:12.452Z,9.35
2022-08-19T10:52:50.012Z,14.30
2022-08-19T10:55:39.779Z,10.55
2022-08-19T10:58:14.020Z,14.02
2022-08-19T11:03:11.688Z,13.55
2022-08-19T11:05:40.738Z,11.45
2022-08-19T11:08:23.149Z,10.93
2022-08-19T11:10:57.805Z,9.85
2022-08-19T11:13:26.306Z,8.80
2022-08-19T11:16:06.515Z,9.50
2022-08-19T11:18:38.304Z,11.25
2022-08-19T11:21:17.848Z,9.00
2022-08-19T11:23:46.906Z,8.30
2022-08-19T11:26:17.955Z,9.93
2022-08-19T11:28:47.115Z,7.10
2022-08-19T11:31:18.135Z,7.13
2022-08-19T11:33:47.860Z,7.80
2022-08-19T11:36:16.973Z,7.68
2022-08-19T11:38:45.632Z,6.93
2022-08-19T11:41:14.106Z,7.97
2022-08-19T11:43:44.127Z,7.22
2022-08-19T11:46:14.985Z,6.78
2022-08-19T11:48:43.360Z,7.05
2022-08-19T11:51:14.030Z,6.50
2022-08-19T11:53:43.045Z,5.90
2022-08-19T11:56:12.262Z,6.18
2022-08-19T11:58:42.781Z,6.10
2022-08-19T12:01:14.611Z,6.70
2022-08-19T12:03:44.134Z,6.60
2022-08-19T12:06:17.043Z,6.38
2022-08-19T12:08:46.761Z,6.30
2022-08-19T12:11:15.848Z,5.43
2022-08-19T12:13:45.811Z,6.10
2022-08-19T12:16:18.421Z,6.07
2022-08-19T12:18:47.541Z,6.30
2022-08-19T12:21:16.877Z,5.93
2022-08-19T12:23:47.348Z,6.38
2022-08-19T12:26:15.793Z,6.25
2022-08-19T12:28:44.381Z,5.68
2022-08-19T12:31:13.969Z,6.50
2022-08-19T12:33:44.077Z,6.22
2022-08-19T12:36:15.408Z,5.28
2022-08-19T12:38:44.954Z,5.85
2022-08-19T12:41:18.581Z,5.30
2022-08-19T12:43:49.133Z,5.43
2022-08-19T12:46:22.650Z,4.93
2022-08-19T12:48:56.129Z,5.80
2022-08-19T12:51:26.175Z,5.03
2022-08-19T12:53:54.562Z,4.88
2022-08-19T12:56:23.440Z,5.75
2022-08-19T12:58:52.882Z,4.78
2022-08-19T13:01:23.104Z,4.38
2022-08-19T13:03:53.392Z,5.25
2022-08-19T13:06:23.736Z,4.32
2022-08-19T13:08:55.451Z,4.50
2022-08-19T13:13:56.138Z,5.88
2022-08-19T13:16:24.592Z,4.55
2022-08-19T13:18:53.806Z,4.60
2022-08-19T13:21:26.098Z,4.47
2022-08-19T13:23:55.075Z,4.40
2022-08-19T13:26:23.514Z,4.40
2022-08-19T13:29:09.491Z,4.13
2022-08-19T13:31:58.335Z,3.88
2022-08-19T13:34:32.716Z,4.25
2022-08-19T13:37:04.919Z,3.50
2022-08-19T13:39:34.845Z,4.95
2022-08-19T13:42:05.636Z,4.10
2022-08-19T13:44:34.552Z,4.53
2022-08-19T13:47:06.589Z,3.70
2022-08-19T13:49:36.847Z,3.75
2022-08-19T13:52:07.148Z,3.70
2022-08-19T13:54:35.552Z,4.05
2022-08-19T13:57:03.896Z,3.90
2022-08-19T13:59:33.778Z,3.95
2022-08-19T14:02:02.998Z,3.72
2022-08-19T14:04:31.392Z,3.20
2022-08-19T14:06:59.744Z,3.78
2022-08-19T14:09:29.489Z,3.58
2022-08-19T14:11:58.120Z,3.33
2022-08-19T14:14:26.450Z,3.20
2022-08-19T14:16:54.945Z,3.17
2022-08-19T14:19:23.283Z,3.28
2022-08-19T14:21:52.611Z,3.38
2022-08-19T14:24:21.013Z,3.22
2022-08-19T14:26:50.818Z,3.20
2022-08-19T14:29:19.468Z,3.08
2022-08-19T14:31:47.835Z,3.20
2022-08-19T14:34:16.335Z,3.13
2022-08-19T14:36:46.099Z,3.15
2022-08-19T14:39:14.600Z,3.42
2022-08-19T14:41:43.706Z,2.83
2022-08-19T14:44:14.306Z,2.95
2022-08-19T14:46:49.323Z,3.10
2022-08-19T14:49:19.416Z,2.90
2022-08-19T14:51:48.591Z,3.63
2022-08-19T14:54:17.087Z,3.72
2022-08-19T14:56:45.786Z,3.50
2022-08-19T14:59:15.917Z,3.90
2022-08-19T15:01:44.592Z,3.20
2022-08-19T15:04:13.092Z,3.40
2022-08-19T15:06:43.178Z,2.90
2022-08-19T15:09:12.287Z,3.25
2022-08-19T15:11:40.772Z,3.10
2022-08-19T15:14:10.919Z,3.72
2022-08-19T15:16:42.681Z,3.40
2022-08-19T15:19:12.716Z,3.40
2022-08-19T15:21:41.125Z,3.50
2022-08-19T15:24:10.113Z,3.40
2022-08-19T15:26:38.623Z,3.10
2022-08-19T15:29:07.278Z,2.88
2022-08-19T15:31:38.781Z,3.03
2022-08-19T15:34:09.419Z,2.53
2022-08-19T15:36:37.947Z,2.72
2022-08-19T15:39:09.997Z,2.80
2022-08-19T15:41:39.543Z,2.50
2022-08-19T15:44:10.794Z,3.08
2022-08-19T15:46:41.690Z,2.60
2022-08-19T15:49:12.700Z,2.88
2022-08-19T15:51:43.208Z,2.45
2022-08-19T15:54:14.562Z,2.40
2022-08-19T15:57:00.931Z,3.05
2022-08-19T15:59:47.776Z,2.80
2022-08-19T16:02:40.173Z,2.70
2022-08-19T16:05:30.791Z,3.08
2022-08-19T16:07:59.464Z,2.70
2022-08-19T16:10:28.440Z,2.70
2022-08-19T16:12:58.077Z,3.40
2022-08-19T16:15:27.344Z,2.90
2022-08-19T16:17:57.304Z,2.42
2022-08-19T16:20:28.634Z,2.97
2022-08-19T16:22:58.159Z,2.60
2022-08-19T16:25:28.918Z,2.60
2022-08-19T16:28:07.037Z,2.50
2022-08-19T16:30:39.016Z,2.40
2022-08-19T16:33:08.392Z,2.50
2022-08-19T16:35:38.768Z,2.83
2022-08-19T16:38:07.806Z,2.60
2022-08-19T16:40:36.638Z,2.60
2022-08-19T16:43:05.819Z,2.72
2022-08-19T16:45:34.339Z,3.08
2022-08-19T16:48:03.878Z,2.88
2022-08-19T16:50:48.838Z,3.10
2022-08-19T16:53:20.925Z,3.60
2022-08-19T16:55:53.214Z,2.80
2022-08-19T16:58:28.173Z,2.80
2022-08-19T17:01:00.750Z,3.05
2022-08-19T17:03:36.719Z,3.65
2022-08-19T17:06:15.979Z,3.27
2022-08-19T17:08:51.656Z,3.80
2022-08-19T17:11:21.116Z,3.60
2022-08-19T17:13:51.198Z,3.58
2022-08-19T17:16:22.022Z,3.78
2022-08-19T17:18:52.768Z,4.18
2022-08-19T17:21:21.520Z,4.13
2022-08-19T17:23:51.390Z,4.20
2022-08-19T17:26:19.952Z,4.50
2022-08-19T17:28:50.146Z,4.18
2022-08-19T17:31:21.140Z,4.10
2022-08-19T17:33:50.380Z,4.53
2022-08-19T17:36:19.275Z,5.55
2022-08-19T17:38:47.853Z,5.22
2022-08-19T17:41:18.870Z,5.40
2022-08-19T17:43:47.249Z,4.38
2022-08-19T17:46:18.778Z,5.97
2022-08-19T17:48:52.173Z,4.75
2022-08-19T17:51:24.529Z,4.65
2022-08-19T17:53:54.970Z,5.60
2022-08-19T17:56:24.909Z,5.45
2022-08-19T17:59:00.654Z,4.68
2022-08-19T18:01:44.144Z,4.47
2022-08-19T18:04:19.933Z,4.88
2022-08-19T18:06:53.677Z,4.35
2022-08-19T18:09:24.754Z,4.32
2022-08-19T18:11:56.726Z,4.32
2022-08-19T18:14:33.377Z,4.20
2022-08-19T18:17:06.194Z,4.70
2022-08-19T18:19:41.257Z,4.05
2022-08-19T18:22:13.308Z,4.40
2022-08-19T18:24:42.980Z,4.97
2022-08-19T18:27:16.074Z,4.68
2022-08-19T18:29:44.482Z,4.43
2022-08-19T18:32:13.670Z,4.57
2022-08-19T18:34:43.587Z,4.40
2022-08-19T18:37:12.536Z,5.45
2022-08-19T18:39:58.474Z,4.20
2022-08-19T18:42:45.729Z,5.43
2022-08-19T18:45:31.576Z,4.75
2022-08-19T18:48:27.535Z,4.35
2022-08-19T18:50:58.429Z,4.28
2022-08-19T18:53:28.478Z,3.90
2022-08-19T18:55:57.740Z,3.83
2022-08-19T18:58:34.417Z,3.75
2022-08-19T19:01:11.016Z,3.50
2022-08-19T19:03:42.923Z,3.25
2022-08-19T19:06:11.337Z,3.45
2022-08-19T19:08:40.938Z,3.30
2022-08-19T19:11:09.784Z,3.08
2022-08-19T19:13:40.981Z,3.17
2022-08-19T19:16:11.523Z,2.60
2022-08-19T19:18:39.977Z,3.03
2022-08-19T19:21:09.211Z,2.17
2022-08-19T19:23:40.565Z,2.40
2022-08-19T19:26:10.459Z,2.10
2022-08-19T19:28:45.725Z,2.22
2022-08-19T19:31:15.862Z,2.50
2022-08-19T19:33:44.644Z,2.08
2022-08-19T19:36:13.342Z,2.40
2022-08-19T19:38:48.227Z,2.40
2022-08-19T19:41:20.353Z,2.53
2022-08-19T19:44:10.049Z,2.50
2022-08-19T19:46:42.465Z,2.35
2022-08-19T19:49:11.907Z,1.90
2022-08-19T19:51:41.261Z,1.88
2022-08-19T19:54:12.719Z,2.22
2022-08-19T19:56:43.349Z,2.20
2022-08-19T19:59:16.239Z,2.30
2022-08-19T20:01:46.227Z,2.13
2022-08-19T20:04:16.487Z,2.50
2022-08-19T20:06:45.939Z,2.60
2022-08-19T20:09:19.504Z,2.60
2022-08-19T20:11:53.796Z,2.20
2022-08-19T20:14:25.736Z,2.78
2022-08-19T20:16:55.580Z,2.28
2022-08-19T20:19:27.086Z,2.13
2022-08-19T20:21:57.401Z,2.22
2022-08-19T20:24:28.027Z,2.47
2022-08-19T20:26:56.466Z,2.35
2022-08-19T20:29:39.623Z,2.00
2022-08-19T20:32:10.288Z,2.38
2022-08-19T20:34:39.211Z,2.40
2022-08-19T20:37:09.468Z,2.53
2022-08-19T20:39:38.649Z,2.28
2022-08-19T20:42:07.433Z,2.30
2022-08-19T20:44:37.686Z,2.42
2022-08-19T20:47:06.519Z,2.38
2022-08-19T20:49:35.187Z,2.08
2022-08-19T20:52:04.931Z,2.40
2022-08-19T20:54:34.349Z,2.20
2022-08-19T20:57:03.752Z,2.15
2022-08-19T20:59:32.311Z,2.03
2022-08-19T21:02:02.093Z,2.05
2022-08-19T21:04:30.578Z,1.92
2022-08-19T21:07:02.101Z,2.30
2022-08-19T21:09:30.592Z,1.98
2022-08-19T21:11:58.967Z,2.00
2022-08-19T21:14:27.363Z,1.92
2022-08-19T21:16:55.743Z,2.00
2022-08-19T21:19:28.718Z,1.77
2022-08-19T21:21:57.233Z,1.90
2022-08-19T21:24:31.341Z,1.92
2022-08-19T21:27:00.498Z,1.77
2022-08-19T21:29:28.919Z,1.70
2022-08-19T21:31:57.253Z,2.00
2022-08-19T21:34:27.039Z,2.00
2022-08-19T21:36:55.457Z,1.70
2022-08-19T21:39:23.831Z,2.10
2022-08-19T21:41:52.408Z,1.70
2022-08-19T21:44:20.811Z,1.63
2022-08-19T21:46:50.572Z,1.60
2022-08-19T21:49:19.586Z,1.95
2022-08-19T21:51:49.769Z,1.77
2022-08-19T21:54:18.118Z,2.50
2022-08-19T21:56:47.004Z,2.53
2022-08-19T21:59:16.823Z,2.25
2022-08-19T22:01:49.624Z,2.90
2022-08-19T22:04:21.206Z,2.42
2022-08-19T22:06:50.994Z,2.42
2022-08-19T22:09:19.344Z,2.25
2022-08-19T22:11:47.747Z,2.80
2022-08-19T22:14:16.221Z,3.42
2022-08-19T22:16:47.259Z,4.35
2022-08-19T22:19:15.699Z,3.90
2022-08-19T22:21:44.058Z,3.38
2022-08-19T22:24:13.845Z,4.50
2022-08-19T22:26:42.239Z,3.88
2022-08-19T22:29:10.834Z,3.72
2022-08-19T22:31:44.327Z,3.25
2022-08-19T22:34:15.041Z,4.28
2022-08-19T22:36:43.486Z,4.95
2022-08-19T22:39:16.047Z,4.38
2022-08-19T22:41:44.571Z,4.18
2022-08-19T22:44:13.008Z,4.25
2022-08-19T22:46:41.996Z,4.00
2022-08-19T22:49:10.435Z,4.90
2022-08-19T22:51:56.014Z,5.13
2022-08-19T22:54:25.770Z,4.47
2022-08-19T22:56:54.138Z,4.95
2022-08-19T22:59:22.548Z,4.80
2022-08-19T23:01:50.873Z,4.75
2022-08-19T23:04:19.221Z,4.60
2022-08-19T23:06:47.865Z,4.15
2022-08-19T23:09:16.987Z,5.20
2022-08-19T23:11:49.931Z,3.80
2022-08-19T23:14:19.082Z,5.45
2022-08-19T23:16:51.266Z,4.93
2022-08-19T23:19:21.346Z,4.70
2022-08-19T23:21:50.143Z,4.85
2022-08-19T23:24:18.534Z,4.50
2022-08-19T23:27:00.791Z,4.65
2022-08-19T23:29:48.623Z,4.00
2022-08-19T23:32:17.959Z,5.65
2022-08-19T23:34:46.710Z,5.35
2022-08-19T23:37:15.229Z,6.40
2022-08-19T23:39:44.692Z,6.10
2022-08-19T23:42:13.816Z,5.10
2022-08-19T23:44:52.011Z,4.93
2022-08-19T23:47:21.325Z,5.70
2022-08-19T23:49:50.573Z,4.55
2022-08-19T23:52:19.122Z,5.10
2022-08-19T23:54:47.494Z,5.30
2022-08-19T23:57:15.876Z,5.25
2022-08-19T23:59:46.248Z,5.45
